sensor_id;sensor_type;location;lat;lon;timestamp;pressure;altitude;pressure_sealevel;temperature;humidity
56630;BME280;42502;40.732;-74.254;2022-11-28T02:41:00;98607.28;;;17.28;48.96
56630;BME280;42502;40.732;-74.254;2022-11-28T02:46:00;98617.00;;;17.82;47.29
56630;BME280;42502;40.732;-74.254;2022-11-28T02:48:14;98623.22;;;18.06;46.56
56630;BME280;42502;40.732;-74.254;2022-11-28T02:50:27;98628.19;;;18.27;45.89
56630;BME280;42502;40.732;-74.254;2022-11-28T02:52:38;98625.09;;;18.43;45.46
56630;BME280;42502;40.732;-74.254;2022-11-28T02:54:41;98628.38;;;18.56;44.96
56630;BME280;42502;40.732;-74.254;2022-11-28T02:56:49;98640.81;;;18.65;44.66
56630;BME280;42502;40.732;-74.254;2022-11-28T02:58:51;98646.06;;;18.74;44.58
56630;BME280;42502;40.732;-74.254;2022-11-28T03:00:52;98638.13;;;18.80;44.65
56630;BME280;42502;40.732;-74.254;2022-11-28T03:09:37;98658.22;;;19.00;44.28
56630;BME280;42502;40.732;-74.254;2022-11-28T03:19:08;98660.28;;;19.14;43.84
56630;BME280;42502;40.732;-74.254;2022-11-28T03:20:59;98661.50;;;19.16;44.19
56630;BME280;42502;40.732;-74.254;2022-11-28T03:23:16;98677.50;;;19.20;43.86
56630;BME280;42502;40.732;-74.254;2022-11-28T03:25:30;98665.50;;;19.19;43.80
56630;BME280;42502;40.732;-74.254;2022-11-28T03:27:37;98673.94;;;19.23;43.58
56630;BME280;42502;40.732;-74.254;2022-11-28T03:29:52;98677.13;;;19.21;43.95
56630;BME280;42502;40.732;-74.254;2022-11-28T03:32:11;98681.94;;;19.24;43.53
56630;BME280;42502;40.732;-74.254;2022-11-28T03:34:16;98685.56;;;19.28;43.51
56630;BME280;42502;40.732;-74.254;2022-11-28T03:36:27;98683.16;;;19.27;43.56
56630;BME280;42502;40.732;-74.254;2022-11-28T03:38:52;98693.94;;;19.28;43.71
56630;BME280;42502;40.732;-74.254;2022-11-28T03:40:57;98699.94;;;19.34;43.57
56630;BME280;42502;40.732;-74.254;2022-11-28T03:43:03;98710.34;;;19.33;43.42
56630;BME280;42502;40.732;-74.254;2022-11-28T03:45:13;98711.16;;;19.34;43.34
56630;BME280;42502;40.732;-74.254;2022-11-28T03:47:15;98709.97;;;19.35;43.66
56630;BME280;42502;40.732;-74.254;2022-11-28T03:49:23;98720.78;;;19.37;43.60
56630;BME280;42502;40.732;-74.254;2022-11-28T03:51:31;98722.00;;;19.39;43.75
56630;BME280;42502;40.732;-74.254;2022-11-28T03:53:59;98731.19;;;19.40;43.89
56630;BME280;42502;40.732;-74.254;2022-11-28T03:56:11;98734.38;;;19.42;44.01
56630;BME280;42502;40.732;-74.254;2022-11-28T04:00:50;98729.22;;;19.44;43.50
56630;BME280;42502;40.732;-74.254;2022-11-28T04:03:12;98726.41;;;19.44;43.69
56630;BME280;42502;40.732;-74.254;2022-11-28T04:07:41;98729.59;;;19.46;43.82
56630;BME280;42502;40.732;-74.254;2022-11-28T04:09:54;98732.41;;;19.46;43.67
56630;BME280;42502;40.732;-74.254;2022-11-28T04:12:02;98734.81;;;19.47;43.59
56630;BME280;42502;40.732;-74.254;2022-11-28T04:14:16;98737.63;;;19.47;43.52
56630;BME280;42502;40.732;-74.254;2022-11-28T04:23:41;98778.44;;;19.52;43.62
56630;BME280;42502;40.732;-74.254;2022-11-28T04:26:11;98786.06;;;19.51;43.83
56630;BME280;42502;40.732;-74.254;2022-11-28T04:28:17;98786.47;;;19.53;43.74
56630;BME280;42502;40.732;-74.254;2022-11-28T04:30:21;98789.66;;;19.52;43.49
56630;BME280;42502;40.732;-74.254;2022-11-28T04:32:22;98788.03;;;19.47;43.47
56630;BME280;42502;40.732;-74.254;2022-11-28T04:34:25;98791.66;;;19.51;43.65
56630;BME280;42502;40.732;-74.254;2022-11-28T04:36:28;98784.44;;;19.47;43.60
56630;BME280;42502;40.732;-74.254;2022-11-28T04:38:31;98804.84;;;19.51;43.45
56630;BME280;42502;40.732;-74.254;2022-11-28T04:41:13;98792.84;;;19.47;44.01
56630;BME280;42502;40.732;-74.254;2022-11-28T04:43:19;98800.44;;;19.50;43.41
56630;BME280;42502;40.732;-74.254;2022-11-28T04:45:49;98792.41;;;19.45;43.98
56630;BME280;42502;40.732;-74.254;2022-11-28T04:47:52;98798.84;;;19.49;43.42
56630;BME280;42502;40.732;-74.254;2022-11-28T04:49:53;98798.84;;;19.49;43.58
56630;BME280;42502;40.732;-74.254;2022-11-28T04:52:05;98788.81;;;19.48;43.82
56630;BME280;42502;40.732;-74.254;2022-11-28T04:54:25;98801.22;;;19.47;43.81
56630;BME280;42502;40.732;-74.254;2022-11-28T04:56:41;98788.03;;;19.47;43.58
56630;BME280;42502;40.732;-74.254;2022-11-28T04:58:45;98787.22;;;19.47;43.74
56630;BME280;42502;40.732;-74.254;2022-11-28T05:00:50;98784.44;;;19.47;43.89
56630;BME280;42502;40.732;-74.254;2022-11-28T05:02:53;98772.81;;;19.45;43.79
56630;BME280;42502;40.732;-74.254;2022-11-28T05:04:55;98786.41;;;19.43;43.86
56630;BME280;42502;40.732;-74.254;2022-11-28T05:07:05;98786.41;;;19.43;44.21
56630;BME280;42502;40.732;-74.254;2022-11-28T05:09:06;98776.38;;;19.42;43.61
56630;BME280;42502;40.732;-74.254;2022-11-28T05:11:06;98778.41;;;19.45;43.82
56630;BME280;42502;40.732;-74.254;2022-11-28T05:13:07;98772.00;;;19.41;43.83
56630;BME280;42502;40.732;-74.254;2022-11-28T05:15:09;98780.00;;;19.42;44.01
56630;BME280;42502;40.732;-74.254;2022-11-28T05:17:12;98775.59;;;19.41;44.03
56630;BME280;42502;40.732;-74.254;2022-11-28T05:19:13;98782.41;;;19.44;44.17
56630;BME280;42502;40.732;-74.254;2022-11-28T05:21:14;98788.81;;;19.44;44.38
56630;BME280;42502;40.732;-74.254;2022-11-28T05:23:17;98790.81;;;19.44;44.24
56630;BME280;42502;40.732;-74.254;2022-11-28T05:25:21;98780.81;;;19.43;44.60
56630;BME280;42502;40.732;-74.254;2022-11-28T05:27:22;98771.19;;;19.40;44.45
56630;BME280;42502;40.732;-74.254;2022-11-28T05:29:23;98773.59;;;19.42;44.38
56630;BME280;42502;40.732;-74.254;2022-11-28T05:31:24;98775.19;;;19.43;44.46
56630;BME280;42502;40.732;-74.254;2022-11-28T05:33:25;98768.00;;;19.42;44.48
56630;BME280;42502;40.732;-74.254;2022-11-28T05:35:29;98768.38;;;19.40;44.34
56630;BME280;42502;40.732;-74.254;2022-11-28T05:37:33;98770.78;;;19.42;44.74
56630;BME280;42502;40.732;-74.254;2022-11-28T05:39:34;98763.59;;;19.41;44.57
56630;BME280;42502;40.732;-74.254;2022-11-28T05:41:35;98767.59;;;19.40;44.58
56630;BME280;42502;40.732;-74.254;2022-11-28T05:43:36;98770.38;;;19.40;44.67
56630;BME280;42502;40.732;-74.254;2022-11-28T05:45:43;98779.59;;;19.40;44.54
56630;BME280;42502;40.732;-74.254;2022-11-28T05:47:44;98773.19;;;19.40;44.56
56630;BME280;42502;40.732;-74.254;2022-11-28T05:49:45;98771.19;;;19.40;44.03
56630;BME280;42502;40.732;-74.254;2022-11-28T05:51:47;98772.00;;;19.41;44.49
56630;BME280;42502;40.732;-74.254;2022-11-28T05:53:48;98765.97;;;19.39;44.29
56630;BME280;42502;40.732;-74.254;2022-11-28T05:55:52;98758.34;;;19.35;44.53
56630;BME280;42502;40.732;-74.254;2022-11-28T05:57:53;98758.41;;;19.39;44.42
56630;BME280;42502;40.732;-74.254;2022-11-28T05:59:54;98757.56;;;19.39;44.58
56630;BME280;42502;40.732;-74.254;2022-11-28T06:01:55;98767.97;;;19.38;44.31
56630;BME280;42502;40.732;-74.254;2022-11-28T06:03:56;98767.19;;;19.38;44.34
56630;BME280;42502;40.732;-74.254;2022-11-28T06:06:00;98767.97;;;19.34;44.34
56630;BME280;42502;40.732;-74.254;2022-11-28T06:08:01;98772.78;;;19.38;44.29
56630;BME280;42502;40.732;-74.254;2022-11-28T06:10:02;98765.16;;;19.34;44.21
56630;BME280;42502;40.732;-74.254;2022-11-28T06:12:03;98768.38;;;19.37;44.19
56630;BME280;42502;40.732;-74.254;2022-11-28T06:14:04;98763.97;;;19.35;44.28
56630;BME280;42502;40.732;-74.254;2022-11-28T06:16:10;98767.97;;;19.34;44.53
56630;BME280;42502;40.732;-74.254;2022-11-28T06:18:11;98769.56;;;19.35;44.33
56630;BME280;42502;40.732;-74.254;2022-11-28T06:20:12;98761.53;;;19.30;44.29
56630;BME280;42502;40.732;-74.254;2022-11-28T06:22:12;98758.75;;;19.34;44.29
56630;BME280;42502;40.732;-74.254;2022-11-28T06:24:13;98767.97;;;19.34;44.57
56630;BME280;42502;40.732;-74.254;2022-11-28T06:26:17;98765.56;;;19.33;44.74
56630;BME280;42502;40.732;-74.254;2022-11-28T06:28:18;98767.97;;;19.34;44.64
56630;BME280;42502;40.732;-74.254;2022-11-28T06:30:25;98776.38;;;19.34;44.72
56630;BME280;42502;40.732;-74.254;2022-11-28T06:32:25;98775.56;;;19.34;44.43
56630;BME280;42502;40.732;-74.254;2022-11-28T06:34:26;98790.38;;;19.34;44.64
56630;BME280;42502;40.732;-74.254;2022-11-28T06:36:30;98805.97;;;19.35;44.69
56630;BME280;42502;40.732;-74.254;2022-11-28T06:38:31;98805.97;;;19.35;44.41
56630;BME280;42502;40.732;-74.254;2022-11-28T06:40:32;98811.56;;;19.35;44.59
56630;BME280;42502;40.732;-74.254;2022-11-28T06:42:34;98811.94;;;19.34;44.76
56630;BME280;42502;40.732;-74.254;2022-11-28T06:44:35;98808.34;;;19.30;44.85
56630;BME280;42502;40.732;-74.254;2022-11-28T06:46:36;98813.97;;;19.33;44.60
56630;BME280;42502;40.732;-74.254;2022-11-28T06:48:37;98825.56;;;19.35;44.82
56630;BME280;42502;40.732;-74.254;2022-11-28T06:50:38;98820.34;;;19.30;44.66
56630;BME280;42502;40.732;-74.254;2022-11-28T06:52:39;98830.38;;;19.35;44.97
56630;BME280;42502;40.732;-74.254;2022-11-28T06:54:41;98839.94;;;19.34;44.97
56630;BME280;42502;40.732;-74.254;2022-11-28T06:56:42;98845.53;;;19.34;44.60
56630;BME280;42502;40.732;-74.254;2022-11-28T06:58:43;98852.75;;;19.35;44.88
56630;BME280;42502;40.732;-74.254;2022-11-28T07:00:44;98840.72;;;19.31;45.02
56630;BME280;42502;40.732;-74.254;2022-11-28T07:02:45;98855.94;;;19.33;44.90
56630;BME280;42502;40.732;-74.254;2022-11-28T07:04:49;98845.94;;;19.32;45.04
56630;BME280;42502;40.732;-74.254;2022-11-28T07:06:50;98853.94;;;19.34;45.03
56630;BME280;42502;40.732;-74.254;2022-11-28T07:08:50;98840.72;;;19.31;45.16
56630;BME280;42502;40.732;-74.254;2022-11-28T07:10:52;98857.13;;;19.29;44.92
56630;BME280;42502;40.732;-74.254;2022-11-28T07:12:58;98855.16;;;19.33;45.20
56630;BME280;42502;40.732;-74.254;2022-11-28T07:14:59;98847.94;;;19.28;45.32
56630;BME280;42502;40.732;-74.254;2022-11-28T07:17:02;98857.53;;;19.31;45.05
56630;BME280;42502;40.732;-74.254;2022-11-28T07:19:03;98862.75;;;19.32;45.23
56630;BME280;42502;40.732;-74.254;2022-11-28T07:21:04;98864.75;;;19.32;44.95
56630;BME280;42502;40.732;-74.254;2022-11-28T07:23:08;98866.31;;;19.29;45.00
56630;BME280;42502;40.732;-74.254;2022-11-28T07:25:09;98872.34;;;19.31;45.06
56630;BME280;42502;40.732;-74.254;2022-11-28T07:27:10;98877.94;;;19.31;44.98
56630;BME280;42502;40.732;-74.254;2022-11-28T07:29:16;98879.94;;;19.31;45.13
56630;BME280;42502;40.732;-74.254;2022-11-28T07:31:18;98876.34;;;19.30;45.52
56630;BME280;42502;40.732;-74.254;2022-11-28T07:33:23;98870.34;;;19.32;45.06
56630;BME280;42502;40.732;-74.254;2022-11-28T07:35:24;98882.34;;;19.32;45.00
56630;BME280;42502;40.732;-74.254;2022-11-28T07:37:27;98891.94;;;19.31;44.93
56630;BME280;42502;40.732;-74.254;2022-11-28T07:39:28;98894.75;;;19.31;44.86
56630;BME280;42502;40.732;-74.254;2022-11-28T07:41:35;98879.91;;;19.24;45.12
56630;BME280;42502;40.732;-74.254;2022-11-28T07:43:36;98890.31;;;19.27;44.83
56630;BME280;42502;40.732;-74.254;2022-11-28T07:45:38;98895.13;;;19.30;45.01
56630;BME280;42502;40.732;-74.254;2022-11-28T07:47:39;98887.13;;;19.28;44.90
56630;BME280;42502;40.732;-74.254;2022-11-28T07:49:40;98888.72;;;19.29;45.10
56630;BME280;42502;40.732;-74.254;2022-11-28T07:51:41;98887.13;;;19.28;45.15
56630;BME280;42502;40.732;-74.254;2022-11-28T07:53:42;98879.13;;;19.27;44.96
56630;BME280;42502;40.732;-74.254;2022-11-28T07:55:43;98878.72;;;19.28;45.03
56630;BME280;42502;40.732;-74.254;2022-11-28T07:57:47;98891.91;;;19.28;44.83
56630;BME280;42502;40.732;-74.254;2022-11-28T07:59:47;98885.50;;;19.27;44.81
56630;BME280;42502;40.732;-74.254;2022-11-28T08:01:48;98881.47;;;19.25;44.95
56630;BME280;42502;40.732;-74.254;2022-11-28T08:03:50;98895.09;;;19.26;44.61
56630;BME280;42502;40.732;-74.254;2022-11-28T08:05:51;98892.69;;;19.25;44.88
56630;BME280;42502;40.732;-74.254;2022-11-28T08:07:54;98888.69;;;19.22;44.69
56630;BME280;42502;40.732;-74.254;2022-11-28T08:09:55;98895.09;;;19.26;44.94
56630;BME280;42502;40.732;-74.254;2022-11-28T08:11:56;98890.69;;;19.25;44.81
56630;BME280;42502;40.732;-74.254;2022-11-28T08:13:57;98887.09;;;19.25;44.81
56630;BME280;42502;40.732;-74.254;2022-11-28T08:16:04;98891.88;;;19.24;44.85
56630;BME280;42502;40.732;-74.254;2022-11-28T08:18:06;98891.47;;;19.22;44.53
56630;BME280;42502;40.732;-74.254;2022-11-28T08:20:07;98892.28;;;19.23;44.67
56630;BME280;42502;40.732;-74.254;2022-11-28T08:22:11;98892.69;;;19.25;44.71
56630;BME280;42502;40.732;-74.254;2022-11-28T08:24:12;98901.47;;;19.23;44.49
56630;BME280;42502;40.732;-74.254;2022-11-28T08:26:14;98901.47;;;19.23;44.64
56630;BME280;42502;40.732;-74.254;2022-11-28T08:28:16;98900.28;;;19.24;44.44
56630;BME280;42502;40.732;-74.254;2022-11-28T08:30:16;98893.44;;;19.18;44.75
56630;BME280;42502;40.732;-74.254;2022-11-28T08:32:17;98899.88;;;19.22;44.57
56630;BME280;42502;40.732;-74.254;2022-11-28T08:34:19;98901.47;;;19.23;44.69
56630;BME280;42502;40.732;-74.254;2022-11-28T08:36:21;98897.41;;;19.17;44.75
56630;BME280;42502;40.732;-74.254;2022-11-28T08:38:21;98912.66;;;19.23;44.56
56630;BME280;42502;40.732;-74.254;2022-11-28T08:40:22;98911.88;;;19.23;44.54
56630;BME280;42502;40.732;-74.254;2022-11-28T08:42:23;98923.06;;;19.23;44.60
56630;BME280;42502;40.732;-74.254;2022-11-28T08:44:26;98922.28;;;19.22;44.53
56630;BME280;42502;40.732;-74.254;2022-11-28T08:46:29;98922.63;;;19.17;44.40
56630;BME280;42502;40.732;-74.254;2022-11-28T08:48:30;98925.81;;;19.19;44.40
56630;BME280;42502;40.732;-74.254;2022-11-28T08:50:35;98927.03;;;19.18;44.56
56630;BME280;42502;40.732;-74.254;2022-11-28T08:52:35;98929.84;;;19.22;44.45
56630;BME280;42502;40.732;-74.254;2022-11-28T08:54:36;98920.59;;;19.14;44.63
56630;BME280;42502;40.732;-74.254;2022-11-28T08:56:37;98921.44;;;19.18;44.55
56630;BME280;42502;40.732;-74.254;2022-11-28T08:58:43;98926.25;;;19.21;44.50
56630;BME280;42502;40.732;-74.254;2022-11-28T09:00:45;98921.03;;;19.20;44.53
56630;BME280;42502;40.732;-74.254;2022-11-28T09:02:46;98915.06;;;19.21;44.47
56630;BME280;42502;40.732;-74.254;2022-11-28T09:04:47;98913.44;;;19.20;44.51
56630;BME280;42502;40.732;-74.254;2022-11-28T09:06:48;98910.63;;;19.16;44.66
56630;BME280;42502;40.732;-74.254;2022-11-28T09:08:49;98903.81;;;19.17;44.43
56630;BME280;42502;40.732;-74.254;2022-11-28T09:10:50;98893.06;;;19.20;44.39
56630;BME280;42502;40.732;-74.254;2022-11-28T09:12:51;98893.38;;;19.14;44.42
56630;BME280;42502;40.732;-74.254;2022-11-28T09:14:52;98887.84;;;19.18;44.38
56630;BME280;42502;40.732;-74.254;2022-11-28T09:16:53;98883.84;;;19.19;44.18
56630;BME280;42502;40.732;-74.254;2022-11-28T09:18:54;98883.41;;;19.17;44.31
56630;BME280;42502;40.732;-74.254;2022-11-28T09:21:03;98883.03;;;19.18;44.27
56630;BME280;42502;40.732;-74.254;2022-11-28T09:23:04;98882.59;;;19.13;44.53
56630;BME280;42502;40.732;-74.254;2022-11-28T09:25:06;98886.63;;;19.15;44.44
56630;BME280;42502;40.732;-74.254;2022-11-28T09:27:10;98885.44;;;19.16;44.06
56630;BME280;42502;40.732;-74.254;2022-11-28T09:29:11;98888.63;;;19.15;44.43
56630;BME280;42502;40.732;-74.254;2022-11-28T09:31:15;98886.59;;;19.12;44.45
56630;BME280;42502;40.732;-74.254;2022-11-28T09:33:17;98897.81;;;19.15;44.48
56630;BME280;42502;40.732;-74.254;2022-11-28T09:35:18;98881.72;;;19.02;44.26
56630;BME280;42502;40.732;-74.254;2022-11-28T09:37:18;98893.75;;;19.09;44.38
56630;BME280;42502;40.732;-74.254;2022-11-28T09:39:22;98900.59;;;19.12;44.19
56630;BME280;42502;40.732;-74.254;2022-11-28T09:45:30;98900.22;;;19.17;44.30
56630;BME280;42502;40.732;-74.254;2022-11-28T09:47:34;98902.19;;;19.13;44.03
56630;BME280;42502;40.732;-74.254;2022-11-28T09:49:47;98912.97;;;19.14;43.99
56630;BME280;42502;40.732;-74.254;2022-11-28T09:51:57;98925.00;;;19.15;44.10
56630;BME280;42502;40.732;-74.254;2022-11-28T09:54:14;98919.78;;;19.13;44.35
56630;BME280;42502;40.732;-74.254;2022-11-28T09:56:21;98918.97;;;19.13;43.84
56630;BME280;42502;40.732;-74.254;2022-11-28T09:58:46;98922.16;;;19.11;44.07
56630;BME280;42502;40.732;-74.254;2022-11-28T10:05:19;98929.38;;;19.12;44.28
56630;BME280;42502;40.732;-74.254;2022-11-28T10:14:15;98940.94;;;19.11;44.15
56630;BME280;42502;40.732;-74.254;2022-11-28T10:19:05;98942.13;;;19.06;44.24
56630;BME280;42502;40.732;-74.254;2022-11-28T10:23:34;98943.34;;;19.09;44.05
56630;BME280;42502;40.732;-74.254;2022-11-28T10:25:50;98943.34;;;19.09;44.13
56630;BME280;42502;40.732;-74.254;2022-11-28T10:27:53;98941.34;;;19.09;43.97
56630;BME280;42502;40.732;-74.254;2022-11-28T10:30:00;98956.50;;;19.08;44.03
56630;BME280;42502;40.732;-74.254;2022-11-28T10:32:03;98958.91;;;19.06;43.74
56630;BME280;42502;40.732;-74.254;2022-11-28T10:34:15;98966.13;;;19.07;44.15
56630;BME280;42502;40.732;-74.254;2022-11-28T10:36:29;98970.91;;;19.07;43.94
56630;BME280;42502;40.732;-74.254;2022-11-28T10:38:34;98970.91;;;19.07;44.02
56630;BME280;42502;40.732;-74.254;2022-11-28T10:40:42;98980.50;;;19.06;44.11
56630;BME280;42502;40.732;-74.254;2022-11-28T10:42:52;98982.09;;;19.07;43.82
56630;BME280;42502;40.732;-74.254;2022-11-28T11:01:58;98998.06;;;19.03;43.88
56630;BME280;42502;40.732;-74.254;2022-11-28T11:04:00;99003.28;;;19.04;43.59
56630;BME280;42502;40.732;-74.254;2022-11-28T11:06:01;98996.84;;;19.04;43.95
56630;BME280;42502;40.732;-74.254;2022-11-28T11:08:20;98998.06;;;19.03;43.84
56630;BME280;42502;40.732;-74.254;2022-11-28T11:10:25;98993.25;;;19.03;44.00
56630;BME280;42502;40.732;-74.254;2022-11-28T11:12:33;98989.63;;;18.99;43.73
56630;BME280;42502;40.732;-74.254;2022-11-28T11:14:38;98997.59;;;18.97;43.81
56630;BME280;42502;40.732;-74.254;2022-11-28T11:16:53;98998.78;;;18.96;43.93
56630;BME280;42502;40.732;-74.254;2022-11-28T11:19:01;99018.03;;;19.01;43.73
56630;BME280;42502;40.732;-74.254;2022-11-28T11:21:12;99025.22;;;19.02;43.66
56630;BME280;42502;40.732;-74.254;2022-11-28T11:23:21;99034.81;;;19.01;44.04
56630;BME280;42502;40.732;-74.254;2022-11-28T11:25:24;99032.41;;;18.99;44.14
56630;BME280;42502;40.732;-74.254;2022-11-28T11:27:25;99038.00;;;18.99;43.88
56630;BME280;42502;40.732;-74.254;2022-11-28T11:29:34;99029.56;;;18.96;43.98
56630;BME280;42502;40.732;-74.254;2022-11-28T11:31:42;99038.81;;;19.00;43.93
56630;BME280;42502;40.732;-74.254;2022-11-28T11:33:43;99041.22;;;19.02;43.96
56630;BME280;42502;40.732;-74.254;2022-11-28T11:35:48;99045.19;;;19.00;43.85
56630;BME280;42502;40.732;-74.254;2022-11-28T11:37:49;99041.19;;;18.98;43.63
56630;BME280;42502;40.732;-74.254;2022-11-28T11:39:52;99042.75;;;18.95;43.87
56630;BME280;42502;40.732;-74.254;2022-11-28T11:44:25;99057.16;;;18.97;44.09
56630;BME280;42502;40.732;-74.254;2022-11-28T11:46:49;99058.78;;;18.98;43.86
56630;BME280;42502;40.732;-74.254;2022-11-28T11:48:51;99069.59;;;19.00;43.98
56630;BME280;42502;40.732;-74.254;2022-11-28T11:50:54;99066.38;;;18.98;43.86
56630;BME280;42502;40.732;-74.254;2022-11-28T11:53:02;99075.56;;;18.98;43.80
56630;BME280;42502;40.732;-74.254;2022-11-28T11:55:12;99085.16;;;18.97;43.86
56630;BME280;42502;40.732;-74.254;2022-11-28T11:57:15;99091.94;;;18.96;43.69
56630;BME280;42502;40.732;-74.254;2022-11-28T11:59:29;99091.94;;;18.96;43.94
56630;BME280;42502;40.732;-74.254;2022-11-28T12:01:34;99094.75;;;18.96;43.56
56630;BME280;42502;40.732;-74.254;2022-11-28T12:06:03;99112.72;;;18.95;43.73
56630;BME280;42502;40.732;-74.254;2022-11-28T12:08:18;99126.31;;;18.97;43.80
56630;BME280;42502;40.732;-74.254;2022-11-28T12:10:26;99125.53;;;18.96;43.81
56630;BME280;42502;40.732;-74.254;2022-11-28T12:12:28;99133.88;;;18.93;43.80
56630;BME280;42502;40.732;-74.254;2022-11-28T12:14:35;99177.50;;;18.97;43.55
56630;BME280;42502;40.732;-74.254;2022-11-28T12:16:47;99172.66;;;18.94;43.83
56630;BME280;42502;40.732;-74.254;2022-11-28T12:27:02;99203.88;;;18.96;43.65
56630;BME280;42502;40.732;-74.254;2022-11-28T12:29:25;99206.69;;;18.96;43.45
56630;BME280;42502;40.732;-74.254;2022-11-28T12:31:18;99207.47;;;18.97;43.71
56630;BME280;42502;40.732;-74.254;2022-11-28T12:41:05;99235.44;;;18.93;43.87
56630;BME280;42502;40.732;-74.254;2022-11-28T12:52:50;99275.41;;;18.94;44.05
56630;BME280;42502;40.732;-74.254;2022-11-28T12:57:39;99278.13;;;18.90;44.18
56630;BME280;42502;40.732;-74.254;2022-11-28T13:09:41;99330.13;;;18.91;44.35
56630;BME280;42502;40.732;-74.254;2022-11-28T13:11:51;99340.16;;;18.92;44.29
56630;BME280;42502;40.732;-74.254;2022-11-28T13:16:27;99344.13;;;18.91;44.54
56630;BME280;42502;40.732;-74.254;2022-11-28T13:18:41;99340.94;;;18.93;44.12
56630;BME280;42502;40.732;-74.254;2022-11-28T13:20:44;99361.34;;;18.93;44.17
56630;BME280;42502;40.732;-74.254;2022-11-28T13:27:36;99373.66;;;18.89;44.68
56630;BME280;42502;40.732;-74.254;2022-11-28T13:32:27;99378.44;;;18.88;44.75
56630;BME280;42502;40.732;-74.254;2022-11-28T13:34:30;99376.91;;;18.91;44.37
56630;BME280;42502;40.732;-74.254;2022-11-28T13:36:43;99384.91;;;18.92;44.81
56630;BME280;42502;40.732;-74.254;2022-11-28T13:39:02;99387.25;;;18.90;44.73
56630;BME280;42502;40.732;-74.254;2022-11-28T13:41:40;99392.13;;;18.93;44.73
56630;BME280;42502;40.732;-74.254;2022-11-28T13:44:23;99390.50;;;18.92;44.48
56630;BME280;42502;40.732;-74.254;2022-11-28T13:46:25;99411.34;;;18.95;44.47
56630;BME280;42502;40.732;-74.254;2022-11-28T13:50:35;99413.31;;;18.94;44.60
56630;BME280;42502;40.732;-74.254;2022-11-28T13:52:43;99410.53;;;18.94;44.72
56630;BME280;42502;40.732;-74.254;2022-11-28T13:54:53;99414.53;;;18.93;44.87
56630;BME280;42502;40.732;-74.254;2022-11-28T13:57:13;99420.41;;;18.88;44.87
56630;BME280;42502;40.732;-74.254;2022-11-28T13:59:21;99438.47;;;18.91;44.88
56630;BME280;42502;40.732;-74.254;2022-11-28T14:01:26;99445.69;;;18.92;44.95
56630;BME280;42502;40.732;-74.254;2022-11-28T14:03:30;99450.44;;;18.91;44.65
56630;BME280;42502;40.732;-74.254;2022-11-28T14:05:37;99458.56;;;18.96;44.46
56630;BME280;42502;40.732;-74.254;2022-11-28T14:07:44;99463.69;;;18.94;44.76
56630;BME280;42502;40.732;-74.254;2022-11-28T14:28:33;99502.09;;;18.94;44.69
56630;BME280;42502;40.732;-74.254;2022-11-28T14:30:41;99506.50;;;18.95;44.60
56630;BME280;42502;40.732;-74.254;2022-11-28T14:32:45;99507.69;;;18.94;44.68
56630;BME280;42502;40.732;-74.254;2022-11-28T14:34:47;99498.47;;;18.93;44.62
56630;BME280;42502;40.732;-74.254;2022-11-28T14:36:48;99511.72;;;18.96;44.41
56630;BME280;42502;40.732;-74.254;2022-11-28T14:41:12;99527.31;;;18.97;44.82
56630;BME280;42502;40.732;-74.254;2022-11-28T14:45:42;99537.03;;;19.04;44.43
56630;BME280;42502;40.732;-74.254;2022-11-28T14:52:24;99552.66;;;19.05;44.59
56630;BME280;42502;40.732;-74.254;2022-11-28T14:54:33;99563.16;;;19.11;45.41
56630;BME280;42502;40.732;-74.254;2022-11-28T14:56:35;99567.66;;;19.16;44.85
56630;BME280;42502;40.732;-74.254;2022-11-28T14:58:36;99568.47;;;19.16;45.11
56630;BME280;42502;40.732;-74.254;2022-11-28T15:00:45;99589.03;;;19.24;45.20
56630;BME280;42502;40.732;-74.254;2022-11-28T15:03:09;99590.72;;;19.29;45.43
56630;BME280;42502;40.732;-74.254;2022-11-28T15:05:42;99604.75;;;19.32;45.82
56630;BME280;42502;40.732;-74.254;2022-11-28T15:12:07;99575.78;;;19.44;45.75
56630;BME280;42502;40.732;-74.254;2022-11-28T15:14:25;99571.34;;;19.43;46.06
56630;BME280;42502;40.732;-74.254;2022-11-28T15:16:29;99584.69;;;19.50;45.99
56630;BME280;42502;40.732;-74.254;2022-11-28T15:18:32;99597.94;;;19.53;45.87
56630;BME280;42502;40.732;-74.254;2022-11-28T15:20:41;99603.53;;;19.53;46.34
56630;BME280;42502;40.732;-74.254;2022-11-28T15:22:46;99611.72;;;19.62;46.25
56630;BME280;42502;40.732;-74.254;2022-11-28T15:24:50;99618.88;;;19.59;46.30
56630;BME280;42502;40.732;-74.254;2022-11-28T15:26:54;99627.84;;;19.68;46.16
56630;BME280;42502;40.732;-74.254;2022-11-28T15:29:13;99619.06;;;19.70;46.30
56630;BME280;42502;40.732;-74.254;2022-11-28T15:31:24;99614.25;;;19.70;46.06
56630;BME280;42502;40.732;-74.254;2022-11-28T15:33:27;99620.81;;;19.78;46.03
56630;BME280;42502;40.732;-74.254;2022-11-28T15:35:29;99624.50;;;19.82;46.08
56630;BME280;42502;40.732;-74.254;2022-11-28T15:37:32;99632.91;;;19.82;45.68
56630;BME280;42502;40.732;-74.254;2022-11-28T15:39:38;99626.16;;;19.87;45.81
56630;BME280;42502;40.732;-74.254;2022-11-28T15:41:39;99631.03;;;19.90;45.92
56630;BME280;42502;40.732;-74.254;2022-11-28T15:43:45;99617.47;;;19.92;45.56
56630;BME280;42502;40.732;-74.254;2022-11-28T15:45:55;99626.72;;;19.96;45.74
56630;BME280;42502;40.732;-74.254;2022-11-28T15:47:59;99642.78;;;19.99;45.56
56630;BME280;42502;40.732;-74.254;2022-11-28T15:52:03;99644.84;;;20.02;45.30
56630;BME280;42502;40.732;-74.254;2022-11-28T15:54:41;99647.63;;;20.02;45.22
56630;BME280;42502;40.732;-74.254;2022-11-28T15:56:57;99662.16;;;20.08;45.28
56630;BME280;42502;40.732;-74.254;2022-11-28T15:59:01;99666.22;;;20.11;45.04
56630;BME280;42502;40.732;-74.254;2022-11-28T16:03:25;99654.66;;;20.16;45.19
56630;BME280;42502;40.732;-74.254;2022-11-28T16:05:27;99659.53;;;20.19;44.93
56630;BME280;42502;40.732;-74.254;2022-11-28T16:07:37;99643.91;;;20.18;45.17